Time;durP1;ratioP1;P1;durP2;ratioP2;P2;SDS_P1;SDS_P2;PMS_P1;PMS_P2;Temp;Humidity;BMP_temperature;BMP_pressure;BME280_temperature;BME280_humidity;BME280_pressure;Samples;Min_cycle;Max_cycle;Signal;HPM_P1;HPM_P2
2023/01/11 00:01:13;;;;;;;17.77;11.32;;;9.00;99.90;;;;;;5092126;28;20473;-82
2023/01/11 00:03:59;;;;;;;15.73;11.15;;;9.10;99.90;;;;;;5091190;28;20056;-81
2023/01/11 00:06:46;;;;;;;16.73;11.07;;;9.10;99.90;;;;;;5092246;28;20074;-85
2023/01/11 00:09:32;;;;;;;16.85;11.18;;;9.10;99.90;;;;;;5078229;28;20052;-82
2023/01/11 00:12:18;;;;;;;15.40;9.93;;;9.10;99.90;;;;;;5092840;28;20252;-84
2023/01/11 00:15:05;;;;;;;14.45;9.55;;;9.10;99.90;;;;;;5091253;28;20143;-79
2023/01/11 00:17:51;;;;;;;16.48;10.40;;;9.20;99.90;;;;;;5060884;28;20077;-80
2023/01/11 00:20:41;;;;;;;14.85;10.25;;;9.20;99.90;;;;;;5093999;28;20048;-80
2023/01/11 00:23:27;;;;;;;19.00;10.70;;;9.20;99.90;;;;;;5073015;28;20145;-81
2023/01/11 00:26:13;;;;;;;17.15;10.73;;;9.20;99.90;;;;;;5096248;28;20040;-84
2023/01/11 00:28:59;;;;;;;15.27;9.48;;;9.20;99.90;;;;;;5086888;28;20502;-78
2023/01/11 00:31:46;;;;;;;13.70;9.48;;;9.30;99.90;;;;;;5112462;28;20047;-78
2023/01/11 00:34:33;;;;;;;13.77;9.02;;;9.30;99.90;;;;;;5111486;28;20470;-80
2023/01/11 00:37:20;;;;;;;12.93;8.35;;;9.40;99.90;;;;;;5093926;28;20167;-79
2023/01/11 00:40:07;;;;;;;15.25;8.07;;;9.40;99.90;;;;;;5110723;28;20091;-84
2023/01/11 00:47:55;;;;;;;14.30;9.15;;;9.40;99.90;;;;;;5085261;28;20483;-80
2023/01/11 00:49:05;;;;;;;11.15;8.30;;;9.40;99.90;;;;;;5092996;28;20112;-81
2023/01/11 00:51:52;;;;;;;13.15;8.27;;;9.50;99.90;;;;;;5092388;28;20058;-80
2023/01/11 00:54:39;;;;;;;12.20;8.73;;;9.50;99.90;;;;;;5095204;28;20055;-83
2023/01/11 00:57:25;;;;;;;10.32;7.00;;;9.50;99.90;;;;;;5113090;28;20635;-81
2023/01/11 01:00:12;;;;;;;11.65;7.60;;;9.50;99.90;;;;;;5079207;28;20083;-79
2023/01/11 01:02:58;;;;;;;8.65;5.97;;;9.50;99.90;;;;;;5109543;28;20047;-82
2023/01/11 01:05:45;;;;;;;12.30;6.47;;;9.60;99.90;;;;;;5110247;28;20105;-83
2023/01/11 01:08:31;;;;;;;10.50;6.18;;;9.60;99.90;;;;;;5092891;28;20418;-84
2023/01/11 01:11:17;;;;;;;10.35;6.60;;;9.60;99.90;;;;;;5100747;28;20098;-83
2023/01/11 01:17:08;;;;;;;8.95;5.82;;;9.60;99.90;;;;;;5091285;28;20035;-79
2023/01/11 01:19:54;;;;;;;8.80;5.40;;;9.60;99.90;;;;;;5092037;28;20239;-80
2023/01/11 01:22:41;;;;;;;8.35;4.50;;;9.60;99.90;;;;;;5110864;28;20047;-81
2023/01/11 01:25:28;;;;;;;9.77;4.55;;;9.70;99.90;;;;;;5109708;28;20051;-82
2023/01/11 01:28:14;;;;;;;8.52;5.30;;;9.70;99.90;;;;;;5110876;28;20050;-84
2023/01/11 01:31:00;;;;;;;8.88;4.90;;;9.70;99.90;;;;;;5093264;28;20058;-80
2023/01/11 01:33:46;;;;;;;9.32;5.10;;;9.70;99.90;;;;;;5111229;28;20054;-84
2023/01/11 01:36:32;;;;;;;8.77;4.60;;;9.70;99.90;;;;;;5097110;28;20047;-80
2023/01/11 01:39:18;;;;;;;10.07;4.82;;;9.70;99.90;;;;;;5109946;28;20051;-81
2023/01/11 01:42:06;;;;;;;9.32;5.03;;;9.80;99.90;;;;;;5091774;28;20106;-80
2023/01/11 01:45:06;;;;;;;8.55;4.80;;;9.80;99.90;;;;;;5092769;28;20121;-80
2023/01/11 01:48:00;;;;;;;9.35;5.55;;;9.80;99.90;;;;;;5079126;28;20472;-85
2023/01/11 01:50:50;;;;;;;8.95;4.78;;;9.80;99.90;;;;;;5111473;28;20047;-79
2023/01/11 01:53:44;;;;;;;7.32;4.80;;;9.80;99.90;;;;;;5109936;28;20050;-81
2023/01/11 01:56:38;;;;;;;8.70;5.38;;;9.90;99.90;;;;;;5109846;28;20052;-83
2023/01/11 01:59:27;;;;;;;8.07;4.45;;;9.90;99.90;;;;;;5110537;28;20087;-79
2023/01/11 02:02:13;;;;;;;8.57;5.00;;;10.00;99.90;;;;;;5111254;28;20052;-78
2023/01/11 02:05:00;;;;;;;10.52;5.20;;;10.00;99.90;;;;;;5109300;28;20050;-79
2023/01/11 02:07:46;;;;;;;10.93;4.82;;;10.00;99.90;;;;;;5111284;28;20051;-77
2023/01/11 02:10:33;;;;;;;8.15;4.85;;;10.00;99.90;;;;;;5110683;28;20115;-80
2023/01/11 02:13:20;;;;;;;6.90;4.43;;;10.10;99.90;;;;;;5078504;28;20071;-85
2023/01/11 02:16:06;;;;;;;8.25;4.53;;;10.10;99.90;;;;;;5108449;28;20443;-80
2023/01/11 02:18:54;;;;;;;9.30;4.55;;;10.10;99.90;;;;;;5109425;28;20054;-79
2023/01/11 02:22:06;;;;;;;8.18;4.70;;;10.10;99.90;;;;;;5109109;28;20055;-78
2023/01/11 02:25:00;;;;;;;8.85;4.75;;;10.10;99.90;;;;;;5058806;28;20052;-79
2023/01/11 02:28:08;;;;;;;14.68;6.30;;;10.10;99.90;;;;;;5078584;28;20048;-81
2023/01/11 02:31:02;;;;;;;9.75;5.63;;;10.10;99.90;;;;;;5111367;28;20066;-78
2023/01/11 02:34:20;;;;;;;12.68;5.65;;;10.10;99.90;;;;;;5077539;28;20059;-80
2023/01/11 02:37:18;;;;;;;8.13;5.22;;;10.10;99.90;;;;;;5090787;28;20054;-81
2023/01/11 02:40:16;;;;;;;10.98;5.95;;;10.00;99.90;;;;;;5107219;28;20054;-83
2023/01/11 02:46:57;;;;;;;10.00;5.88;;;10.00;99.90;;;;;;5080957;28;20083;-80
2023/01/11 02:50:01;;;;;;;11.20;6.28;;;10.00;99.90;;;;;;5090044;28;20055;-80
2023/01/11 02:53:09;;;;;;;8.77;5.78;;;10.00;99.90;;;;;;5091367;28;20048;-79
2023/01/11 02:56:03;;;;;;;11.90;7.38;;;10.00;99.90;;;;;;5115270;28;20053;-81
2023/01/11 02:58:52;;;;;;;13.98;6.93;;;10.00;99.90;;;;;;5108417;28;20442;-78
2023/01/11 03:01:47;;;;;;;16.13;6.40;;;10.00;99.90;;;;;;5090607;28;20055;-77
2023/01/11 03:04:36;;;;;;;20.35;5.30;;;10.00;99.90;;;;;;5077061;28;20466;-80
2023/01/11 03:07:48;;;;;;;13.60;4.95;;;10.20;99.90;;;;;;5093265;28;20066;-79
2023/01/11 03:11:10;;;;;;;22.02;6.53;;;10.20;99.90;;;;;;5109554;28;20054;-84
2023/01/11 03:14:19;;;;;;;21.75;5.30;;;10.30;99.90;;;;;;5011625;28;20046;-78
2023/01/11 03:17:30;;;;;;;24.92;5.15;;;10.30;99.90;;;;;;5089946;28;20059;-77
2023/01/11 03:20:25;;;;;;;33.60;7.75;;;10.30;99.90;;;;;;5113919;28;20044;-80
2023/01/11 03:23:20;;;;;;;26.95;4.82;;;10.20;99.90;;;;;;5120143;28;20100;-80
2023/01/11 03:26:17;;;;;;;28.05;5.93;;;10.30;99.90;;;;;;5121998;28;20052;-84
2023/01/11 03:29:25;;;;;;;33.95;6.28;;;10.30;99.90;;;;;;5072896;28;1261470;-79
2023/01/11 03:32:31;;;;;;;34.13;5.93;;;10.20;99.90;;;;;;5100509;28;20039;-77
2023/01/11 03:35:49;;;;;;;37.53;6.00;;;10.10;99.90;;;;;;5119439;28;20135;-79
2023/01/11 03:38:54;;;;;;;28.77;7.72;;;10.10;99.90;;;;;;5063394;28;20208;-81
2023/01/11 03:41:42;;;;;;;34.85;5.80;;;10.00;99.90;;;;;;5098191;28;20047;-80
2023/01/11 03:44:37;;;;;;;34.15;6.10;;;10.00;99.90;;;;;;5099866;28;20050;-81
2023/01/11 03:47:26;;;;;;;36.25;6.68;;;10.00;99.90;;;;;;5111788;28;20160;-83
2023/01/11 03:50:12;;;;;;;34.90;6.22;;;9.90;99.90;;;;;;5112626;28;20654;-79
2023/01/11 03:53:02;;;;;;;40.58;6.60;;;9.90;99.90;;;;;;5094799;28;20048;-83
2023/01/11 03:55:55;;;;;;;39.15;6.75;;;9.80;99.90;;;;;;5116954;28;20055;-82
2023/01/11 03:58:42;;;;;;;39.38;7.63;;;9.80;99.90;;;;;;5112073;28;20103;-82
2023/01/11 04:01:28;;;;;;;43.33;6.50;;;9.80;99.90;;;;;;5079859;28;20047;-80
2023/01/11 04:04:15;;;;;;;35.47;6.85;;;9.80;99.90;;;;;;5113436;28;20047;-83
2023/01/11 04:07:01;;;;;;;45.13;7.00;;;9.80;99.90;;;;;;5095238;28;20052;-84
2023/01/11 04:09:47;;;;;;;40.25;7.22;;;9.80;99.90;;;;;;5103752;28;20433;-85
2023/01/11 04:12:33;;;;;;;43.97;7.70;;;9.80;99.90;;;;;;5112435;28;20047;-82
2023/01/11 04:15:20;;;;;;;55.58;8.30;;;9.80;99.90;;;;;;5111406;28;20533;-82
2023/01/11 04:18:06;;;;;;;54.22;7.60;;;9.80;99.90;;;;;;5111657;28;20047;-82
2023/01/11 04:20:52;;;;;;;34.20;7.00;;;9.80;99.90;;;;;;5096918;28;20052;-81
2023/01/11 04:23:38;;;;;;;39.03;7.03;;;9.70;99.90;;;;;;5109670;28;20415;-82
2023/01/11 04:26:25;;;;;;;28.20;6.20;;;9.70;99.90;;;;;;5113924;28;20134;-80
2023/01/11 04:29:11;;;;;;;28.48;5.38;;;9.70;99.90;;;;;;5092334;28;20571;-84
2023/01/11 04:31:57;;;;;;;35.75;6.47;;;9.60;99.90;;;;;;5116675;28;20274;-86
2023/01/11 04:34:44;;;;;;;33.55;5.00;;;9.60;99.90;;;;;;5113526;28;20048;-81
2023/01/11 04:37:30;;;;;;;24.83;4.82;;;9.50;99.90;;;;;;5092749;28;20527;-84
2023/01/11 04:40:16;;;;;;;30.85;5.97;;;9.60;99.90;;;;;;5082808;28;20518;-81
2023/01/11 04:43:02;;;;;;;30.42;5.07;;;9.50;99.90;;;;;;5112095;28;20079;-78
2023/01/11 04:45:49;;;;;;;31.23;5.75;;;9.50;99.90;;;;;;5112108;28;20073;-84
2023/01/11 04:48:38;;;;;;;22.88;4.05;;;9.50;99.90;;;;;;5111232;28;20053;-80
2023/01/11 04:51:25;;;;;;;20.60;4.53;;;9.50;99.90;;;;;;5078628;28;20080;-84
2023/01/11 04:54:11;;;;;;;37.50;5.25;;;9.40;99.90;;;;;;5094466;28;20051;-82
2023/01/11 04:56:57;;;;;;;22.10;4.60;;;9.40;99.90;;;;;;5113768;28;20073;-79
2023/01/11 04:59:46;;;;;;;29.17;5.10;;;9.40;99.90;;;;;;5097009;28;20044;-79
2023/01/11 05:02:32;;;;;;;30.52;5.80;;;9.40;99.90;;;;;;5111833;28;20043;-79
2023/01/11 05:05:19;;;;;;;32.22;5.00;;;9.50;99.90;;;;;;5078490;28;20518;-83
2023/01/11 05:08:05;;;;;;;24.38;4.72;;;9.40;99.90;;;;;;5111853;28;20100;-80
2023/01/11 05:10:57;;;;;;;27.55;4.80;;;9.50;99.90;;;;;;5092935;28;20875;-82
2023/01/11 05:13:44;;;;;;;29.83;4.65;;;9.40;99.90;;;;;;5092527;28;20044;-81
2023/01/11 05:16:30;;;;;;;20.45;4.25;;;9.50;99.90;;;;;;5092489;28;20051;-82
2023/01/11 05:19:17;;;;;;;30.23;5.93;;;9.50;99.90;;;;;;5097478;28;20047;-85
2023/01/11 05:22:03;;;;;;;20.05;4.22;;;9.50;99.90;;;;;;5112375;28;20449;-80
2023/01/11 05:24:49;;;;;;;21.20;4.15;;;9.50;99.90;;;;;;5111428;28;20499;-85
2023/01/11 05:27:35;;;;;;;23.65;3.40;;;9.50;99.90;;;;;;5093913;28;20058;-81
2023/01/11 05:30:21;;;;;;;19.75;3.25;;;9.40;99.90;;;;;;5071092;28;20051;-82
2023/01/11 05:33:08;;;;;;;19.92;3.28;;;9.40;99.90;;;;;;5090339;28;20129;-79
2023/01/11 05:36:03;;;;;;;21.45;3.75;;;9.30;99.90;;;;;;5088665;28;20044;-81
2023/01/11 05:38:50;;;;;;;24.55;5.13;;;9.30;99.90;;;;;;5071514;28;20117;-82
2023/01/11 05:41:37;;;;;;;18.08;3.20;;;9.20;99.90;;;;;;5077928;28;20056;-80
2023/01/11 05:47:28;;;;;;;28.00;3.83;;;9.20;99.90;;;;;;5072594;28;20456;-83
2023/01/11 05:50:15;;;;;;;24.92;3.72;;;9.30;99.90;;;;;;5090143;28;20044;-82
2023/01/11 05:53:01;;;;;;;17.50;4.30;;;9.20;99.90;;;;;;5092982;28;20094;-83
2023/01/11 05:55:54;;;;;;;17.15;3.85;;;9.30;99.90;;;;;;5072720;28;20063;-79
2023/01/11 05:58:40;;;;;;;24.17;4.05;;;9.20;99.90;;;;;;5089964;28;20044;-81
2023/01/11 06:01:26;;;;;;;19.10;3.22;;;9.30;99.90;;;;;;5090834;28;20047;-82
2023/01/11 06:04:13;;;;;;;16.55;3.03;;;9.30;99.90;;;;;;5072085;28;20051;-79
2023/01/11 06:06:59;;;;;;;19.45;4.18;;;9.30;99.90;;;;;;5090088;28;20062;-82
2023/01/11 06:09:45;;;;;;;19.95;3.58;;;9.30;99.90;;;;;;5094697;28;20055;-83
2023/01/11 06:12:31;;;;;;;32.70;4.80;;;9.30;99.90;;;;;;5089948;28;20044;-80
2023/01/11 06:15:18;;;;;;;17.52;3.58;;;9.20;99.90;;;;;;5072103;28;20096;-79
2023/01/11 06:18:04;;;;;;;11.60;3.17;;;9.20;99.90;;;;;;5070422;28;20484;-80
2023/01/11 06:20:52;;;;;;;16.50;3.30;;;9.20;99.90;;;;;;5057867;28;20060;-83
2023/01/11 06:23:40;;;;;;;11.15;2.10;;;9.20;99.90;;;;;;5089604;28;20384;-80
2023/01/11 06:26:26;;;;;;;23.08;3.40;;;9.20;99.90;;;;;;5071651;28;20096;-81
2023/01/11 06:29:13;;;;;;;16.35;3.58;;;9.20;99.90;;;;;;5102444;28;20407;-84
2023/01/11 06:31:59;;;;;;;12.52;2.13;;;9.10;99.90;;;;;;5091429;28;20514;-84
2023/01/11 06:34:45;;;;;;;16.02;2.33;;;9.10;99.90;;;;;;5109278;28;20056;-81
2023/01/11 06:37:32;;;;;;;20.05;2.58;;;9.10;99.90;;;;;;5090977;28;20134;-84
2023/01/11 06:40:18;;;;;;;11.25;2.88;;;9.10;99.90;;;;;;5081987;28;20115;-82
2023/01/11 06:43:04;;;;;;;17.83;2.97;;;9.10;99.90;;;;;;5115531;28;20126;-83
2023/01/11 06:45:51;;;;;;;19.73;2.38;;;9.10;99.90;;;;;;5091465;28;20047;-82
2023/01/11 06:48:37;;;;;;;14.55;2.00;;;9.10;99.90;;;;;;5110350;28;20051;-79
2023/01/11 06:51:23;;;;;;;14.68;3.47;;;9.00;99.90;;;;;;5109636;28;20085;-80
2023/01/11 06:54:09;;;;;;;16.52;2.50;;;9.00;99.90;;;;;;5112641;28;20118;-86
2023/01/11 06:56:56;;;;;;;17.60;5.00;;;9.00;99.90;;;;;;5098075;28;20040;-81
2023/01/11 06:59:42;;;;;;;16.20;3.10;;;9.00;99.90;;;;;;5113664;28;20051;-81
2023/01/11 07:02:29;;;;;;;17.27;2.47;;;8.90;99.90;;;;;;5116904;28;20403;-84
2023/01/11 07:05:16;;;;;;;19.10;2.42;;;8.90;99.90;;;;;;5115695;28;20126;-78
2023/01/11 07:08:02;;;;;;;13.65;2.00;;;8.90;99.90;;;;;;5114498;28;20044;-81
2023/01/11 07:10:49;;;;;;;22.83;2.30;;;8.90;99.90;;;;;;5103395;28;20056;-80
2023/01/11 07:13:35;;;;;;;13.23;2.40;;;8.80;99.90;;;;;;5114842;28;20047;-79
2023/01/11 07:16:21;;;;;;;11.45;2.30;;;8.80;99.90;;;;;;5113907;28;20142;-81
2023/01/11 07:19:07;;;;;;;13.00;2.70;;;8.90;99.90;;;;;;5113355;28;20056;-79
2023/01/11 07:21:54;;;;;;;20.73;2.97;;;8.80;99.90;;;;;;5113481;28;20054;-83
2023/01/11 07:24:40;;;;;;;17.40;2.72;;;8.90;99.90;;;;;;5094430;28;20138;-80
2023/01/11 07:27:27;;;;;;;18.10;3.85;;;8.80;99.90;;;;;;5095568;28;20060;-80
2023/01/11 07:30:13;;;;;;;14.30;2.25;;;8.80;99.90;;;;;;5094782;28;20059;-80
2023/01/11 07:32:59;;;;;;;14.57;2.53;;;8.80;99.90;;;;;;5097252;28;20062;-79
2023/01/11 07:35:48;;;;;;;15.13;2.17;;;8.70;99.90;;;;;;5112825;28;20475;-84
2023/01/11 07:38:34;;;;;;;12.75;2.05;;;8.60;99.90;;;;;;5114790;28;20411;-81
2023/01/11 07:44:25;;;;;;;13.90;3.03;;;8.60;99.90;;;;;;5117440;28;20035;-80
2023/01/11 07:47:11;;;;;;;14.25;2.63;;;8.50;99.90;;;;;;5092840;28;20426;-79
2023/01/11 07:49:58;;;;;;;17.17;3.35;;;8.40;99.90;;;;;;5113813;28;20418;-79
2023/01/11 07:52:47;;;;;;;12.98;3.08;;;8.30;99.90;;;;;;5097220;28;20052;-84
2023/01/11 07:55:34;;;;;;;15.60;2.58;;;8.20;99.90;;;;;;5112773;28;20055;-83
2023/01/11 07:58:21;;;;;;;17.17;2.47;;;8.10;99.90;;;;;;5112341;28;20043;-80
2023/01/11 08:01:07;;;;;;;18.88;2.80;;;8.00;99.90;;;;;;5112089;28;20048;-81
2023/01/11 08:03:53;;;;;;;21.83;2.85;;;7.90;99.90;;;;;;5112520;28;20107;-80
2023/01/11 08:06:40;;;;;;;16.48;2.75;;;7.90;99.90;;;;;;5112194;28;20053;-80
2023/01/11 08:09:26;;;;;;;17.98;3.42;;;7.80;99.90;;;;;;5113409;28;20096;-85
2023/01/11 08:15:17;;;;;;;20.17;3.22;;;7.80;99.90;;;;;;5100727;28;20063;-84
2023/01/11 08:18:05;;;;;;;17.88;3.33;;;7.90;99.90;;;;;;5093248;28;20515;-81
2023/01/11 09:09:37;;;;;;;17.23;3.15;;;7.90;99.90;;;;;;5111128;28;20399;-81
2023/01/11 09:12:23;;;;;;;16.70;3.13;;;8.10;99.90;;;;;;5092082;28;20051;-85
2023/01/11 09:15:10;;;;;;;21.10;3.42;;;8.10;99.90;;;;;;5111104;28;20101;-84
2023/01/11 09:17:56;;;;;;;20.45;3.85;;;8.20;99.90;;;;;;5097179;28;20133;-85
2023/01/11 09:20:42;;;;;;;15.30;3.95;;;8.30;99.90;;;;;;5092616;28;20047;-82
2023/01/11 09:23:28;;;;;;;19.50;3.08;;;8.30;99.90;;;;;;5110166;28;20068;-80
2023/01/11 09:26:15;;;;;;;18.15;2.90;;;8.40;99.90;;;;;;5109488;28;20055;-85
2023/01/11 09:29:01;;;;;;;16.80;3.83;;;8.50;99.90;;;;;;5110310;28;20059;-81
2023/01/11 09:31:47;;;;;;;18.27;3.60;;;8.50;99.90;;;;;;5100773;28;20136;-82
2023/01/11 09:34:33;;;;;;;19.00;3.65;;;8.60;99.90;;;;;;5081415;28;20052;-83
2023/01/11 09:37:21;;;;;;;21.75;3.88;;;8.60;99.90;;;;;;5094494;28;20101;-82
2023/01/11 09:40:17;;;;;;;18.63;3.22;;;8.70;99.90;;;;;;5077930;28;20566;-80
2023/01/11 09:43:06;;;;;;;23.98;3.25;;;8.70;99.90;;;;;;5110580;28;20104;-79
2023/01/11 09:45:57;;;;;;;19.77;4.30;;;8.80;99.90;;;;;;5096259;28;20097;-81
2023/01/11 09:48:53;;;;;;;21.00;3.30;;;8.80;99.90;;;;;;5110765;28;20052;-85
2023/01/11 09:51:42;;;;;;;16.00;2.83;;;8.80;99.90;;;;;;5093077;28;20051;-85
2023/01/11 09:54:28;;;;;;;21.92;4.05;;;8.90;99.90;;;;;;5110552;28;20130;-81
2023/01/11 09:57:29;;;;;;;15.50;2.22;;;9.00;99.90;;;;;;5093393;28;20056;-80
2023/01/11 10:00:39;;;;;;;17.02;2.83;;;9.10;99.90;;;;;;5110000;28;20101;-85
2023/01/11 10:03:30;;;;;;;19.60;4.00;;;9.20;99.90;;;;;;5116191;28;20130;-81
2023/01/11 10:06:45;;;;;;;14.75;3.70;;;9.30;99.90;;;;;;5100188;28;20181;-82
2023/01/11 10:09:34;;;;;;;16.15;3.33;;;9.40;99.90;;;;;;5108287;28;20067;-83
2023/01/11 10:12:56;;;;;;;18.30;2.80;;;9.60;99.90;;;;;;5109797;28;20058;-80
2023/01/11 10:15:46;;;;;;;17.88;3.55;;;9.70;99.90;;;;;;5108864;28;20052;-81
2023/01/11 10:18:53;;;;;;;25.42;4.43;;;9.70;99.90;;;;;;5109409;28;20789;-81
2023/01/11 10:21:54;;;;;;;17.10;3.03;;;9.90;99.90;;;;;;5112047;28;20059;-82
2023/01/11 10:24:47;;;;;;;14.32;2.00;;;10.00;99.90;;;;;;5095064;28;20058;-81
2023/01/11 10:27:38;;;;;;;12.27;2.83;;;10.20;99.90;;;;;;5111815;28;20055;-79
2023/01/11 10:30:50;;;;;;;16.45;3.15;;;10.30;99.90;;;;;;5121194;28;20075;-80
2023/01/11 10:37:26;;;;;;;14.77;2.00;;;10.60;99.90;;;;;;5096847;28;20051;-84
2023/01/11 10:41:02;;;;;;;9.48;2.17;;;10.80;99.90;;;;;;5095673;28;20051;-80
2023/01/11 10:43:59;;;;;;;13.38;2.25;;;10.70;99.90;;;;;;5095819;28;20082;-83
2023/01/11 10:46:52;;;;;;;18.25;2.47;;;10.70;99.90;;;;;;5113907;28;20132;-83
2023/01/11 10:49:54;;;;;;;14.23;2.45;;;10.90;99.90;;;;;;5112426;28;20059;-82
2023/01/11 10:52:50;;;;;;;23.08;3.92;;;10.80;99.90;;;;;;5096103;28;20064;-81
2023/01/11 10:55:49;;;;;;;17.98;3.28;;;10.80;99.90;;;;;;5094944;28;20059;-80
2023/01/11 10:58:59;;;;;;;18.63;4.15;;;11.20;99.90;;;;;;5094720;28;20132;-81
2023/01/11 11:02:11;;;;;;;13.05;2.80;;;11.30;99.90;;;;;;5114687;28;20058;-80
2023/01/11 11:05:04;;;;;;;18.23;2.70;;;11.20;99.90;;;;;;5124857;28;20089;-83
2023/01/11 11:08:12;;;;;;;16.15;3.60;;;10.90;99.90;;;;;;5107084;28;20048;-81
2023/01/11 11:11:10;;;;;;;17.67;2.85;;;11.00;99.90;;;;;;5111890;28;20059;-81
2023/01/11 11:14:13;;;;;;;16.45;4.45;;;11.30;99.90;;;;;;5095331;28;20079;-83
2023/01/11 11:17:12;;;;;;;18.73;4.00;;;11.40;99.90;;;;;;5095556;28;20105;-79
2023/01/11 11:19:59;;;;;;;18.38;3.15;;;11.60;99.90;;;;;;5112517;28;20101;-83
2023/01/11 11:22:48;;;;;;;17.88;2.75;;;11.70;99.90;;;;;;5098015;28;20399;-79
2023/01/11 11:25:37;;;;;;;18.77;2.83;;;11.60;99.90;;;;;;5113093;28;20050;-81
2023/01/11 11:28:29;;;;;;;21.35;3.20;;;11.60;99.90;;;;;;5114438;28;20055;-79
2023/01/11 11:31:17;;;;;;;20.98;3.55;;;11.80;99.90;;;;;;5117224;28;20568;-80
2023/01/11 11:34:12;;;;;;;24.48;3.75;;;11.90;99.90;;;;;;5095476;28;20788;-80
2023/01/11 11:36:59;;;;;;;15.10;3.22;;;12.00;99.90;;;;;;5102534;28;20051;-85
2023/01/11 11:39:48;;;;;;;20.02;3.15;;;11.80;99.90;;;;;;5096117;28;20039;-80
2023/01/11 11:42:34;;;;;;;22.88;3.55;;;12.20;99.90;;;;;;5081867;28;20118;-80
2023/01/11 11:45:20;;;;;;;19.02;3.13;;;12.40;99.90;;;;;;5113139;28;20573;-81
2023/01/11 11:48:09;;;;;;;17.08;3.35;;;12.60;99.90;;;;;;5094667;28;20464;-80
2023/01/11 11:50:58;;;;;;;27.42;3.80;;;12.70;99.90;;;;;;5113535;28;20058;-85
2023/01/11 11:53:55;;;;;;;22.52;3.72;;;12.30;99.90;;;;;;5101814;28;20090;-82
2023/01/11 11:56:41;;;;;;;22.33;3.80;;;11.80;99.90;;;;;;5094695;28;20075;-80
2023/01/11 11:59:31;;;;;;;15.65;3.65;;;11.60;99.90;;;;;;5111400;28;20143;-81
2023/01/11 12:02:28;;;;;;;19.08;3.20;;;11.50;99.90;;;;;;5112547;28;20080;-84
2023/01/11 12:05:14;;;;;;;23.38;3.80;;;11.50;99.90;;;;;;5094856;28;20048;-84
2023/01/11 12:08:01;;;;;;;16.35;3.10;;;11.70;99.90;;;;;;5115361;28;20079;-79
2023/01/11 12:10:58;;;;;;;16.40;3.80;;;11.40;99.90;;;;;;5111779;28;20422;-80
2023/01/11 12:14:14;;;;;;;26.20;3.50;;;11.00;99.90;;;;;;5112287;28;20088;-81
2023/01/11 12:17:24;;;;;;;22.27;3.40;;;10.60;99.90;;;;;;5093185;28;20108;-82
2023/01/11 12:20:28;;;;;;;27.33;6.40;;;10.30;99.90;;;;;;5083971;28;20046;-81
2023/01/11 12:23:24;;;;;;;21.58;3.90;;;10.10;99.90;;;;;;5104551;28;20075;-81
2023/01/11 12:26:21;;;;;;;23.70;3.72;;;10.00;99.90;;;;;;5096183;28;20055;-80
2023/01/11 12:30:08;;;;;;;24.17;4.38;;;9.80;99.90;;;;;;5097096;28;20043;-80
2023/01/11 12:32:54;;;;;;;;;;;9.70;99.90;;;;;;5040143;28;20552;-81
2023/01/11 12:35:50;;;;;;;;;;;9.70;99.90;;;;;;5119231;28;19920;-83
2023/01/11 12:38:48;;;;;;;20.83;3.53;;;9.70;99.90;;;;;;5100223;28;19919;-84
2023/01/11 12:42:05;;;;;;;26.67;4.25;;;9.60;99.90;;;;;;5116840;28;20055;-86
2023/01/11 12:45:15;;;;;;;22.98;3.05;;;9.80;99.90;;;;;;5099139;28;20050;-86
2023/01/11 12:48:16;;;;;;;22.13;3.90;;;10.10;99.90;;;;;;5113187;28;20059;-83
2023/01/11 12:51:35;;;;;;;23.23;4.72;;;10.00;99.90;;;;;;5122077;28;20047;-85
2023/01/11 12:54:24;;;;;;;28.05;4.65;;;9.90;99.90;;;;;;5095246;28;20048;-85
2023/01/11 12:57:16;;;;;;;28.63;4.93;;;9.80;99.90;;;;;;5093329;28;20078;-86
2023/01/11 13:00:04;;;;;;;23.60;3.90;;;9.70;99.90;;;;;;5093891;28;20050;-85
2023/01/11 13:03:04;;;;;;;22.77;5.68;;;9.80;99.90;;;;;;5091637;28;20368;-83
2023/01/11 13:06:02;;;;;;;25.70;4.10;;;9.90;99.90;;;;;;5093181;28;20104;-85
2023/01/11 13:08:57;;;;;;;27.55;5.97;;;10.00;99.90;;;;;;5121390;28;20094;-87
2023/01/11 13:11:47;;;;;;;;;;;10.10;99.90;;;;;;5118485;28;20506;-80
2023/01/11 13:15:01;;;;;;;31.75;4.10;;;10.00;99.90;;;;;;5118398;28;19930;-82
2023/01/11 13:18:13;;;;;;;28.05;4.93;;;9.90;99.90;;;;;;5099495;28;20098;-80
2023/01/11 13:21:10;;;;;;;25.90;4.45;;;9.90;99.90;;;;;;5092710;28;20058;-80
2023/01/11 13:24:04;;;;;;;34.40;4.82;;;9.90;99.90;;;;;;5093031;28;20039;-79
2023/01/11 13:26:53;;;;;;;27.98;4.65;;;9.90;99.90;;;;;;5092806;28;20434;-83
2023/01/11 13:29:44;;;;;;;24.67;3.75;;;9.90;99.90;;;;;;5093330;28;20673;-84
2023/01/11 13:32:36;;;;;;;21.90;4.57;;;9.80;99.90;;;;;;5110952;28;20619;-80
2023/01/11 13:35:31;;;;;;;28.15;4.72;;;9.60;99.90;;;;;;5097916;28;20489;-80
2023/01/11 13:39:11;;;;;;;31.20;6.40;;;9.40;99.90;;;;;;5094441;28;20546;-78
2023/01/11 13:42:02;;;;;;;24.20;5.00;;;9.40;99.90;;;;;;5018296;28;20041;-84
2023/01/11 13:45:11;;;;;;;28.25;5.05;;;9.40;99.90;;;;;;5112487;28;20113;-80
2023/01/11 13:48:13;;;;;;;26.77;5.40;;;9.40;99.90;;;;;;5110156;28;20201;-80
2023/01/11 13:51:22;;;;;;;33.97;9.05;;;9.40;99.90;;;;;;5095187;28;20044;-79
2023/01/11 13:54:17;;;;;;;33.92;5.57;;;9.40;99.90;;;;;;5072356;28;20058;-87
2023/01/11 13:57:10;;;;;;;33.00;6.07;;;9.40;99.90;;;;;;5110031;28;20051;-85
2023/01/11 14:00:05;;;;;;;26.42;4.68;;;9.40;99.90;;;;;;5092420;28;20048;-79
2023/01/11 14:03:02;;;;;;;;;;;9.40;99.90;;;;;;5095502;28;20052;-80
2023/01/11 14:06:00;;;;;;;30.88;6.15;;;9.50;99.90;;;;;;5095149;28;19977;-83
2023/01/11 14:09:12;;;;;;;32.08;4.43;;;9.60;99.90;;;;;;5101866;28;20062;-79
2023/01/11 14:12:10;;;;;;;22.75;4.75;;;9.50;99.90;;;;;;5089282;28;20070;-82
2023/01/11 14:15:15;;;;;;;34.80;6.25;;;9.30;99.90;;;;;;5110444;28;20100;-86
2023/01/11 14:18:21;;;;;;;29.33;5.10;;;9.30;99.90;;;;;;5091273;28;20487;-79
2023/01/11 14:21:16;;;;;;;30.58;5.43;;;9.30;99.90;;;;;;5109669;28;20046;-82
2023/01/11 14:24:03;;;;;;;23.83;4.65;;;9.30;99.90;;;;;;5092607;28;20055;-79
2023/01/11 14:27:02;;;;;;;25.83;5.22;;;9.30;99.90;;;;;;5091439;28;20044;-87
2023/01/11 14:29:48;;;;;;;31.98;6.78;;;9.30;99.90;;;;;;5093060;28;20081;-86
2023/01/11 14:33:03;;;;;;;29.08;5.43;;;9.40;99.90;;;;;;5118784;28;20136;-83
2023/01/11 14:35:55;;;;;;;27.20;3.90;;;9.70;99.90;;;;;;5073922;28;20062;-81
2023/01/11 14:39:06;;;;;;;21.35;4.20;;;9.80;99.90;;;;;;5110114;28;20051;-81
2023/01/11 14:42:09;;;;;;;27.40;4.55;;;9.90;99.90;;;;;;5091920;28;20677;-79
2023/01/11 14:45:04;;;;;;;23.20;4.30;;;9.90;99.90;;;;;;5091861;28;20044;-81
2023/01/11 14:48:08;;;;;;;22.48;4.28;;;9.80;99.90;;;;;;5094152;28;20130;-82
2023/01/11 14:51:36;;;;;;;26.73;4.40;;;9.70;99.90;;;;;;5109140;28;20052;-78
2023/01/11 14:54:46;;;;;;;19.98;4.10;;;9.50;99.90;;;;;;5065171;28;20055;-81
2023/01/11 14:57:38;;;;;;;20.42;4.65;;;9.40;99.90;;;;;;5094306;28;20099;-81
2023/01/11 15:00:27;;;;;;;30.80;3.75;;;9.30;99.90;;;;;;5095502;28;20048;-86
2023/01/11 15:03:18;;;;;;;27.55;5.65;;;9.40;99.90;;;;;;5102419;28;20063;-82
2023/01/11 15:06:15;;;;;;;17.98;4.13;;;9.40;99.90;;;;;;5093652;28;20063;-80
2023/01/11 15:09:01;;;;;;;23.85;4.90;;;9.40;99.90;;;;;;5091373;28;20043;-81
2023/01/11 15:11:48;;;;;;;24.85;5.15;;;9.20;99.90;;;;;;5090997;28;20047;-81
2023/01/11 15:14:36;;;;;;;28.13;4.82;;;9.10;99.90;;;;;;5093011;28;20043;-80
2023/01/11 15:20:32;;;;;;;25.77;4.18;;;8.80;99.90;;;;;;5095079;28;20043;-86
2023/01/11 15:23:19;;;;;;;22.85;4.18;;;8.70;99.90;;;;;;5111518;28;20596;-87
2023/01/11 15:26:08;;;;;;;26.73;5.55;;;8.50;99.90;;;;;;5095198;28;20108;-78
2023/01/11 15:29:00;;;;;;;28.13;6.38;;;8.40;99.90;;;;;;5090688;28;20047;-86
2023/01/11 15:31:46;;;;;;;25.17;4.68;;;8.30;99.90;;;;;;5113612;28;20040;-83
2023/01/11 15:34:38;;;;;;;25.20;4.40;;;8.30;99.90;;;;;;5114310;28;20044;-85
2023/01/11 15:37:30;;;;;;;24.05;5.35;;;8.20;99.90;;;;;;5094745;28;20076;-80
2023/01/11 15:40:24;;;;;;;22.45;4.75;;;8.10;99.90;;;;;;5112957;28;20036;-81
2023/01/11 15:43:47;;;;;;;30.80;4.13;;;8.10;99.90;;;;;;5112793;28;20131;-80
2023/01/11 15:47:00;;;;;;;29.02;5.22;;;8.00;99.90;;;;;;5112236;28;20638;-82
2023/01/11 15:50:20;;;;;;;26.60;4.25;;;8.00;99.90;;;;;;5082624;28;20126;-83
2023/01/11 15:53:15;;;;;;;29.27;4.53;;;7.90;99.90;;;;;;5094012;28;20039;-80
2023/01/11 15:56:47;;;;;;;30.52;4.80;;;7.90;99.90;;;;;;5080131;28;20090;-81
2023/01/11 15:59:48;;;;;;;31.00;6.20;;;7.80;99.90;;;;;;5009899;28;20263;-82
2023/01/11 16:03:06;;;;;;;31.90;5.63;;;7.80;99.90;;;;;;5021748;28;20060;-81
2023/01/11 16:06:01;;;;;;;18.80;4.07;;;7.80;99.90;;;;;;5064811;28;20047;-87
2023/01/11 16:09:08;;;;;;;29.40;5.35;;;7.70;99.90;;;;;;5087233;28;20056;-86
2023/01/11 16:12:13;;;;;;;24.25;4.40;;;7.70;99.90;;;;;;5093768;28;20511;-79
2023/01/11 16:15:14;;;;;;;28.52;4.40;;;7.70;99.90;;;;;;5093774;28;20090;-83